Time;durP1;ratioP1;P1;durP2;ratioP2;P2;SDS_P1;SDS_P2;PMS_P1;PMS_P2;Temp;Humidity;BMP_temperature;BMP_pressure;BME280_temperature;BME280_humidity;BME280_pressure;Samples;Min_cycle;Max_cycle;Signal;HPM_P1;HPM_P2
2021/10/09 00:02:06;;;;;;;21.67;19.38;;;11.10;99.90;;;;;;4955500;28;20082;-78
2021/10/09 00:04:31;;;;;;;22.63;19.98;;;11.10;99.90;;;;;;4955089;29;20027;-79
2021/10/09 00:06:57;;;;;;;22.90;20.38;;;11.10;99.90;;;;;;4953250;28;20377;-79
2021/10/09 00:09:23;;;;;;;20.85;18.60;;;11.00;99.90;;;;;;4955149;29;20477;-79
2021/10/09 00:11:48;;;;;;;22.63;20.20;;;11.00;99.90;;;;;;4954569;28;20153;-78
2021/10/09 00:14:15;;;;;;;20.90;18.67;;;11.00;99.90;;;;;;4955027;29;20063;-78
2021/10/09 00:16:43;;;;;;;24.63;19.52;;;11.00;99.90;;;;;;4953620;29;20027;-78
2021/10/09 00:19:09;;;;;;;25.33;22.52;;;11.00;99.90;;;;;;4953012;28;20038;-77
2021/10/09 00:21:35;;;;;;;30.42;24.70;;;11.00;99.90;;;;;;4953372;29;20027;-78
2021/10/09 00:24:01;;;;;;;23.83;21.27;;;10.90;99.90;;;;;;4953880;28;20064;-78
2021/10/09 00:26:27;;;;;;;25.92;22.65;;;10.90;99.90;;;;;;4953033;29;20015;-77
2021/10/09 00:28:53;;;;;;;26.88;23.90;;;11.00;99.90;;;;;;4953599;29;20027;-78
2021/10/09 00:31:19;;;;;;;26.02;22.27;;;11.00;99.90;;;;;;4953670;29;20075;-77
2021/10/09 00:33:45;;;;;;;29.25;25.02;;;11.00;99.90;;;;;;4952388;28;20401;-80
2021/10/09 00:36:10;;;;;;;26.95;24.13;;;11.00;99.90;;;;;;4954860;28;20126;-80
2021/10/09 00:38:36;;;;;;;30.75;24.73;;;11.00;99.90;;;;;;4954410;29;20042;-78
2021/10/09 00:41:01;;;;;;;26.23;22.00;;;11.00;99.90;;;;;;4954476;28;20023;-80
2021/10/09 00:43:27;;;;;;;27.17;23.52;;;11.00;99.90;;;;;;4952072;29;20046;-74
2021/10/09 00:45:56;;;;;;;24.33;21.63;;;11.00;99.90;;;;;;4931014;29;20017;-79
2021/10/09 00:48:22;;;;;;;25.00;20.98;;;11.00;99.90;;;;;;4915904;29;20429;-76
2021/10/09 00:50:48;;;;;;;26.10;22.63;;;11.00;99.90;;;;;;4926318;29;20074;-78
2021/10/09 00:53:14;;;;;;;27.10;24.02;;;11.00;99.90;;;;;;4935405;29;20114;-79
2021/10/09 00:55:41;;;;;;;24.10;21.50;;;11.00;99.90;;;;;;4934521;29;20538;-79
2021/10/09 00:58:08;;;;;;;24.50;21.88;;;11.00;99.90;;;;;;4934118;29;20028;-78
2021/10/09 01:00:34;;;;;;;28.63;23.45;;;11.00;99.90;;;;;;4934009;29;20027;-78
2021/10/09 01:03:03;;;;;;;24.10;21.42;;;11.00;99.90;;;;;;4934590;29;20414;-78
2021/10/09 01:05:31;;;;;;;23.63;20.70;;;11.00;99.90;;;;;;4935074;29;20032;-79
2021/10/09 01:07:56;;;;;;;25.88;23.15;;;11.00;99.90;;;;;;4933306;29;20064;-81
2021/10/09 01:10:22;;;;;;;24.25;21.67;;;11.00;99.90;;;;;;4934132;29;20059;-81
2021/10/09 01:12:48;;;;;;;25.40;22.63;;;11.00;99.90;;;;;;4935096;29;20034;-81
2021/10/09 01:15:21;;;;;;;25.88;21.92;;;11.00;99.90;;;;;;4934542;29;20054;-80
2021/10/09 01:17:47;;;;;;;25.77;22.90;;;11.00;99.90;;;;;;4934876;29;20016;-81
2021/10/09 01:20:13;;;;;;;32.97;25.38;;;11.00;99.90;;;;;;4935054;29;20036;-80
2021/10/09 01:22:39;;;;;;;28.85;24.27;;;10.90;99.90;;;;;;4932987;29;20030;-80
2021/10/09 01:25:06;;;;;;;27.67;24.67;;;11.00;99.90;;;;;;4933865;29;20540;-75
2021/10/09 01:27:33;;;;;;;26.88;23.15;;;10.90;99.90;;;;;;4933612;29;20031;-75
2021/10/09 01:29:59;;;;;;;34.17;22.33;;;10.90;99.90;;;;;;4934557;29;20027;-76
2021/10/09 01:32:24;;;;;;;26.50;22.63;;;10.90;99.90;;;;;;4934568;29;20579;-75
2021/10/09 01:34:50;;;;;;;28.38;25.05;;;10.90;99.90;;;;;;4933870;29;20040;-74
2021/10/09 01:37:16;;;;;;;28.67;23.75;;;10.90;99.90;;;;;;4934437;29;20429;-76
2021/10/09 01:39:46;;;;;;;25.65;22.65;;;10.90;99.90;;;;;;4934584;29;20067;-75
2021/10/09 01:42:11;;;;;;;27.10;23.48;;;10.90;99.90;;;;;;4935385;29;20023;-77
2021/10/09 01:44:37;;;;;;;26.98;23.70;;;10.90;99.90;;;;;;4934076;29;20034;-78
2021/10/09 01:47:03;;;;;;;30.23;24.88;;;10.90;99.90;;;;;;4934984;29;20488;-77
2021/10/09 01:49:29;;;;;;;24.80;22.30;;;10.90;99.90;;;;;;4933269;29;20087;-78
2021/10/09 01:51:55;;;;;;;26.73;21.20;;;10.90;99.90;;;;;;4934263;29;20100;-79
2021/10/09 01:54:20;;;;;;;22.15;19.75;;;10.90;99.90;;;;;;4933593;29;20051;-78
2021/10/09 01:56:46;;;;;;;22.02;19.75;;;10.90;99.90;;;;;;4933558;29;20034;-75
2021/10/09 01:59:11;;;;;;;25.65;21.75;;;10.90;99.90;;;;;;4934202;29;20032;-76
2021/10/09 02:01:37;;;;;;;24.60;21.60;;;10.80;99.90;;;;;;4934618;29;20027;-78
2021/10/09 02:04:04;;;;;;;24.02;21.52;;;10.80;99.90;;;;;;4934889;29;20060;-78
2021/10/09 02:06:30;;;;;;;26.00;22.40;;;10.80;99.90;;;;;;4932779;29;20024;-75
2021/10/09 02:08:55;;;;;;;24.25;21.73;;;10.80;99.90;;;;;;4936080;29;20083;-77
2021/10/09 02:11:24;;;;;;;23.08;20.55;;;10.80;99.90;;;;;;4936465;29;20115;-74
2021/10/09 02:24:55;;;;;;;23.35;20.98;;;10.70;99.90;;;;;;4938025;29;20201;-75
2021/10/09 02:27:21;;;;;;;24.52;21.20;;;10.70;99.90;;;;;;4937382;29;20107;-77
2021/10/09 02:29:46;;;;;;;24.50;21.92;;;10.60;99.90;;;;;;4936289;29;20086;-77
2021/10/09 02:32:12;;;;;;;25.67;22.90;;;10.70;99.90;;;;;;4937911;29;20560;-75
2021/10/09 02:34:37;;;;;;;24.02;21.35;;;10.60;99.90;;;;;;4935493;29;20051;-75
2021/10/09 02:37:03;;;;;;;24.92;22.08;;;10.60;99.90;;;;;;4936745;29;20059;-73
2021/10/09 02:39:29;;;;;;;28.92;24.63;;;10.60;99.90;;;;;;4935403;29;20023;-75
2021/10/09 02:41:55;;;;;;;27.80;24.10;;;10.60;99.90;;;;;;4937877;29;20354;-76
2021/10/09 02:44:21;;;;;;;27.38;23.33;;;10.60;99.90;;;;;;4937621;29;20104;-75
2021/10/09 02:46:49;;;;;;;26.00;22.83;;;10.60;99.90;;;;;;4936835;29;20035;-77
2021/10/09 02:49:14;;;;;;;28.70;24.25;;;10.60;99.90;;;;;;4937508;29;20038;-78
2021/10/09 02:51:40;;;;;;;27.27;22.70;;;10.50;99.90;;;;;;4937296;29;20024;-79
2021/10/09 02:54:05;;;;;;;25.17;21.10;;;10.60;99.90;;;;;;4936978;29;20036;-78
2021/10/09 02:56:31;;;;;;;25.23;21.90;;;10.60;99.90;;;;;;4937114;29;20027;-79
2021/10/09 02:58:56;;;;;;;23.40;21.00;;;10.50;99.90;;;;;;4937476;29;20038;-77
2021/10/09 03:01:22;;;;;;;24.45;21.80;;;10.50;99.90;;;;;;4936871;29;20083;-78
2021/10/09 03:03:47;;;;;;;24.88;21.80;;;10.50;99.90;;;;;;4937011;29;20107;-79
2021/10/09 03:06:13;;;;;;;23.98;20.73;;;10.40;99.90;;;;;;4936083;29;20139;-79
2021/10/09 03:08:39;;;;;;;25.30;20.88;;;10.40;99.90;;;;;;4936296;29;20027;-77
2021/10/09 03:11:04;;;;;;;23.92;21.25;;;10.40;99.90;;;;;;4935954;29;20028;-78
2021/10/09 03:13:30;;;;;;;24.70;21.55;;;10.40;99.90;;;;;;4936664;29;20080;-74
2021/10/09 03:15:56;;;;;;;23.63;21.15;;;10.40;99.90;;;;;;4935147;29;20035;-77
2021/10/09 03:18:21;;;;;;;24.98;20.85;;;10.30;99.90;;;;;;4935280;29;20060;-74
2021/10/09 03:20:48;;;;;;;22.58;20.25;;;10.30;99.90;;;;;;4936022;29;20461;-78
2021/10/09 03:23:13;;;;;;;23.20;20.55;;;10.30;99.90;;;;;;4936388;29;20051;-78
2021/10/09 03:25:39;;;;;;;23.13;19.33;;;10.30;99.90;;;;;;4936729;29;20521;-79
2021/10/09 03:28:05;;;;;;;23.00;20.15;;;10.20;99.90;;;;;;4935551;29;20119;-78
2021/10/09 03:30:30;;;;;;;23.10;20.45;;;10.20;99.90;;;;;;4935941;29;20031;-79
2021/10/09 03:32:56;;;;;;;23.10;20.25;;;10.20;99.90;;;;;;4935359;29;20055;-77
2021/10/09 03:35:21;;;;;;;22.33;19.88;;;10.20;99.90;;;;;;4936841;29;20069;-76
2021/10/09 03:37:47;;;;;;;26.20;21.60;;;10.20;99.90;;;;;;4935972;29;20027;-79
2021/10/09 03:40:16;;;;;;;26.25;21.92;;;10.10;99.90;;;;;;4935448;29;20086;-79
2021/10/09 03:45:51;;;;;;;22.27;19.88;;;10.10;99.90;;;;;;4896380;29;20048;-74
2021/10/09 03:53:45;;;;;;;26.73;21.27;;;10.00;99.90;;;;;;4917182;29;20090;-80
2021/10/09 03:56:10;;;;;;;26.50;21.80;;;10.00;99.90;;;;;;4928360;29;20412;-79
2021/10/09 03:58:36;;;;;;;25.92;21.25;;;10.00;99.90;;;;;;4935240;29;20038;-81
2021/10/09 04:01:01;;;;;;;24.60;21.05;;;10.00;99.90;;;;;;4934984;29;20030;-81
2021/10/09 04:03:27;;;;;;;24.08;21.48;;;9.90;99.90;;;;;;4934744;29;20115;-80
2021/10/09 04:05:52;;;;;;;26.67;22.77;;;9.90;99.90;;;;;;4934220;29;20082;-80
2021/10/09 04:08:18;;;;;;;25.35;21.30;;;9.90;99.90;;;;;;4934651;29;20028;-80
2021/10/09 04:10:45;;;;;;;25.73;22.95;;;9.90;99.90;;;;;;4935839;29;20337;-78
2021/10/09 04:13:10;;;;;;;22.92;20.38;;;9.90;99.90;;;;;;4935565;29;20055;-80
2021/10/09 04:15:36;;;;;;;26.00;21.55;;;9.80;99.90;;;;;;4935843;29;20485;-74
2021/10/09 04:18:01;;;;;;;24.42;20.33;;;9.80;99.90;;;;;;4935392;29;20472;-75
2021/10/09 04:20:27;;;;;;;24.00;20.55;;;9.80;99.90;;;;;;4934739;29;20550;-73
2021/10/09 04:22:53;;;;;;;24.95;19.98;;;9.80;99.90;;;;;;4920151;29;20508;-75
2021/10/09 04:25:18;;;;;;;25.80;22.50;;;9.80;99.90;;;;;;4916740;29;20397;-79
2021/10/09 04:27:44;;;;;;;29.58;21.13;;;9.70;99.90;;;;;;4935476;29;20038;-77
2021/10/09 04:30:10;;;;;;;23.13;20.50;;;9.70;99.90;;;;;;4935635;29;20156;-77
2021/10/09 04:32:36;;;;;;;23.75;19.60;;;9.70;99.90;;;;;;4933536;29;20043;-78
2021/10/09 04:35:01;;;;;;;22.60;20.20;;;9.70;99.90;;;;;;4935519;29;20040;-73
2021/10/09 04:37:27;;;;;;;22.17;19.15;;;9.60;99.90;;;;;;4933793;29;20469;-74
2021/10/09 04:39:53;;;;;;;21.73;18.27;;;9.60;99.90;;;;;;4934818;29;20054;-75
2021/10/09 04:42:18;;;;;;;27.00;22.33;;;9.60;99.90;;;;;;4934637;29;20024;-75
2021/10/09 04:44:44;;;;;;;26.83;21.77;;;9.50;99.90;;;;;;4935381;29;20554;-75
2021/10/09 04:47:09;;;;;;;26.95;23.00;;;9.50;99.90;;;;;;4933605;29;20039;-78
2021/10/09 04:49:35;;;;;;;28.90;23.75;;;9.50;99.90;;;;;;4935115;29;20114;-78
2021/10/09 04:52:01;;;;;;;24.48;21.40;;;9.50;99.90;;;;;;4935687;29;20083;-79
2021/10/09 04:54:26;;;;;;;25.58;22.45;;;9.50;99.90;;;;;;4934361;29;20035;-79
2021/10/09 04:56:52;;;;;;;25.45;21.27;;;9.50;99.90;;;;;;4935379;29;20070;-80
2021/10/09 04:59:17;;;;;;;22.38;19.15;;;9.40;99.90;;;;;;4935515;29;20090;-79
2021/10/09 05:01:43;;;;;;;25.65;21.85;;;9.40;99.90;;;;;;4934592;29;20031;-78
2021/10/09 05:04:08;;;;;;;27.08;23.38;;;9.40;99.90;;;;;;4935531;29;20035;-77
2021/10/09 05:06:34;;;;;;;23.17;20.05;;;9.40;99.90;;;;;;4935085;29;20409;-74
2021/10/09 05:08:59;;;;;;;24.02;21.38;;;9.40;99.90;;;;;;4934515;29;20480;-76
2021/10/09 05:11:25;;;;;;;26.33;21.60;;;9.40;99.90;;;;;;4934957;29;20024;-76
2021/10/09 05:13:51;;;;;;;24.90;21.35;;;9.30;99.90;;;;;;4934191;29;20028;-74
2021/10/09 05:16:16;;;;;;;30.60;23.38;;;9.30;99.90;;;;;;4934637;29;20546;-76
2021/10/09 05:18:42;;;;;;;28.67;23.73;;;9.30;99.90;;;;;;4933626;29;20024;-74
2021/10/09 05:21:08;;;;;;;28.38;24.52;;;9.30;99.90;;;;;;4934691;29;20099;-77
2021/10/09 05:23:35;;;;;;;25.80;22.95;;;9.30;99.90;;;;;;4934752;29;20083;-75
2021/10/09 05:26:00;;;;;;;24.73;20.73;;;9.30;99.90;;;;;;4935130;29;20079;-74
2021/10/09 05:28:36;;;;;;;26.92;21.45;;;9.30;99.90;;;;;;4934206;29;20446;-76
2021/10/09 05:31:02;;;;;;;28.63;22.33;;;9.20;99.90;;;;;;4935167;29;20497;-75
2021/10/09 05:35:56;;;;;;;25.88;22.42;;;9.20;99.90;;;;;;4934576;29;20046;-75
2021/10/09 05:38:21;;;;;;;25.67;22.23;;;9.20;99.90;;;;;;4933753;29;20384;-78
2021/10/09 05:40:47;;;;;;;25.23;21.42;;;9.20;99.90;;;;;;4933407;29;20035;-74
2021/10/09 05:43:14;;;;;;;25.90;22.58;;;9.20;99.90;;;;;;4936343;29;20461;-79
2021/10/09 05:45:40;;;;;;;26.27;22.75;;;9.10;99.90;;;;;;4938484;29;20433;-79
2021/10/09 05:48:06;;;;;;;25.55;20.45;;;9.10;99.90;;;;;;4938710;29;20024;-80
2021/10/09 05:50:41;;;;;;;24.27;21.15;;;9.10;99.90;;;;;;4936498;29;20024;-80
2021/10/09 05:53:15;;;;;;;23.40;20.08;;;9.10;99.90;;;;;;4938761;29;20024;-79
2021/10/09 06:01:21;;;;;;;23.65;21.02;;;9.00;99.90;;;;;;4938667;29;20031;-80
2021/10/09 06:49:59;;;;;;;37.00;27.60;;;9.20;99.90;;;;;;4937214;29;20035;-80
2021/10/09 07:00:36;;;;;;;29.25;23.50;;;9.30;99.90;;;;;;4936591;29;20495;-77
2021/10/09 07:03:02;;;;;;;30.75;24.15;;;9.30;99.90;;;;;;4934431;29;20027;-77
2021/10/09 07:05:28;;;;;;;31.38;26.55;;;9.30;99.90;;;;;;4936897;29;20038;-78
2021/10/09 07:08:04;;;;;;;27.42;24.40;;;9.40;99.90;;;;;;4935424;29;20032;-77
2021/10/09 07:10:29;;;;;;;33.60;26.02;;;9.40;99.90;;;;;;4935989;29;20491;-75
2021/10/09 07:12:55;;;;;;;28.38;24.55;;;9.40;99.90;;;;;;4935903;29;20039;-78
2021/10/09 07:15:20;;;;;;;28.70;23.42;;;9.50;99.90;;;;;;4936401;29;20090;-77
2021/10/09 07:17:46;;;;;;;39.60;26.63;;;9.50;99.90;;;;;;4936694;29;20056;-79
2021/10/09 07:20:12;;;;;;;33.88;25.90;;;9.50;99.90;;;;;;4935653;29;20028;-77
2021/10/09 07:22:38;;;;;;;34.72;28.67;;;9.50;99.90;;;;;;4935135;29;20063;-77
2021/10/09 07:25:05;;;;;;;29.20;24.90;;;9.60;99.90;;;;;;4936962;29;20031;-79
2021/10/09 07:27:31;;;;;;;30.23;25.48;;;9.60;99.90;;;;;;4935261;29;20024;-77
2021/10/09 07:29:56;;;;;;;28.70;23.95;;;9.60;99.90;;;;;;4935197;29;20034;-77
2021/10/09 07:32:22;;;;;;;29.05;24.70;;;9.70;99.90;;;;;;4936667;29;20024;-79
2021/10/09 07:34:48;;;;;;;29.15;25.20;;;9.70;99.90;;;;;;4935844;29;20036;-79
2021/10/09 07:37:13;;;;;;;27.27;24.02;;;9.70;99.90;;;;;;4935434;29;20027;-75
2021/10/09 07:39:39;;;;;;;28.70;25.02;;;9.70;99.90;;;;;;4936336;29;20028;-75
2021/10/09 07:42:04;;;;;;;34.17;27.35;;;9.70;99.90;;;;;;4934763;29;20031;-74
2021/10/09 07:44:30;;;;;;;34.28;27.70;;;9.70;99.90;;;;;;4935149;29;20031;-78
2021/10/09 07:46:56;;;;;;;33.50;26.90;;;9.80;99.90;;;;;;4936557;29;20034;-77
2021/10/09 07:49:21;;;;;;;33.65;26.02;;;9.80;99.90;;;;;;4934513;29;20027;-76
2021/10/09 07:51:48;;;;;;;31.60;25.25;;;9.80;99.90;;;;;;4935838;29;20055;-77
2021/10/09 07:54:13;;;;;;;32.45;27.45;;;9.80;99.90;;;;;;4936368;29;20111;-77
2021/10/09 07:56:39;;;;;;;31.33;26.67;;;9.80;99.90;;;;;;4934076;29;20123;-79
2021/10/09 07:59:05;;;;;;;31.88;26.85;;;9.80;99.90;;;;;;4934893;29;20495;-80
2021/10/09 08:01:32;;;;;;;28.42;24.50;;;9.80;99.90;;;;;;4936257;29;20031;-77
2021/10/09 08:03:58;;;;;;;28.90;23.67;;;9.80;99.90;;;;;;4934344;29;20569;-79
2021/10/09 08:06:23;;;;;;;29.13;25.38;;;9.80;99.90;;;;;;4935287;29;20036;-75
2021/10/09 08:08:49;;;;;;;31.75;26.67;;;9.80;99.90;;;;;;4934005;29;20392;-78
2021/10/09 08:11:15;;;;;;;34.53;28.77;;;9.80;99.90;;;;;;4932400;29;20106;-79
2021/10/09 08:13:41;;;;;;;32.97;27.70;;;9.80;99.90;;;;;;4934518;29;20059;-77
2021/10/09 08:16:06;;;;;;;29.98;26.27;;;9.80;99.90;;;;;;4935057;29;20464;-77
2021/10/09 08:18:32;;;;;;;27.77;23.35;;;9.80;99.90;;;;;;4932510;29;20040;-78
2021/10/09 08:21:03;;;;;;;32.35;27.90;;;9.80;99.90;;;;;;4934655;29;20075;-77
2021/10/09 08:23:35;;;;;;;31.98;25.98;;;9.90;99.90;;;;;;4933497;29;20034;-78
2021/10/09 08:39:42;;;;;;;31.45;26.35;;;9.90;99.90;;;;;;4933915;29;20039;-78
2021/10/09 08:42:09;;;;;;;33.83;28.45;;;9.90;99.90;;;;;;4929140;28;20024;-80
2021/10/09 08:44:35;;;;;;;34.05;28.80;;;9.90;99.90;;;;;;4950376;29;20047;-77
2021/10/09 08:47:01;;;;;;;35.03;29.17;;;9.90;99.90;;;;;;4939443;29;20029;-78
2021/10/09 08:49:26;;;;;;;36.63;30.45;;;9.90;99.90;;;;;;4952029;29;20514;-75
2021/10/09 08:51:52;;;;;;;32.10;27.42;;;9.90;99.90;;;;;;4950613;29;21542;-73
2021/10/09 08:54:18;;;;;;;33.60;28.40;;;9.90;99.90;;;;;;4933064;29;20122;-75
2021/10/09 08:56:47;;;;;;;33.63;28.88;;;9.90;99.90;;;;;;4933262;29;20034;-76
2021/10/09 08:59:22;;;;;;;31.30;27.85;;;9.90;99.90;;;;;;4938257;29;20055;-74
2021/10/09 09:02:10;;;;;;;37.33;28.40;;;9.90;99.90;;;;;;4953861;29;20494;-75
2021/10/09 09:27:12;;;;;;;34.53;30.27;;;10.60;99.90;;;;;;4939045;29;20078;-76
2021/10/09 09:40:42;;;;;;;42.00;31.35;;;10.40;99.90;;;;;;4937990;29;20111;-76
2021/10/09 09:43:09;;;;;;;35.30;28.48;;;10.40;99.90;;;;;;4937250;29;20106;-74
2021/10/09 09:45:37;;;;;;;38.65;28.75;;;10.40;99.90;;;;;;4938111;29;20022;-79
2021/10/09 09:48:04;;;;;;;35.75;29.73;;;10.50;99.90;;;;;;4938506;29;20079;-75
2021/10/09 09:50:31;;;;;;;33.17;27.23;;;10.50;99.90;;;;;;4936295;29;20114;-74
2021/10/09 09:52:59;;;;;;;32.38;27.45;;;10.40;99.90;;;;;;4936548;29;20647;-76
2021/10/09 09:55:25;;;;;;;37.88;29.20;;;10.50;99.90;;;;;;4936654;29;20044;-76
2021/10/09 09:57:52;;;;;;;31.00;27.60;;;10.50;99.90;;;;;;4937018;29;20048;-74
2021/10/09 10:00:17;;;;;;;31.92;26.92;;;10.50;99.90;;;;;;4936406;29;20087;-74
2021/10/09 10:02:55;;;;;;;30.52;25.23;;;10.50;99.90;;;;;;4935406;29;20464;-74
2021/10/09 10:05:26;;;;;;;38.83;29.30;;;10.60;99.90;;;;;;4937950;29;20042;-74
2021/10/09 10:07:52;;;;;;;36.65;28.75;;;10.60;99.90;;;;;;4936921;29;20027;-73
2021/10/09 10:10:18;;;;;;;34.97;27.40;;;10.60;99.90;;;;;;4936210;29;20086;-83
2021/10/09 10:12:46;;;;;;;32.03;27.05;;;10.70;99.90;;;;;;4934936;29;20028;-74
2021/10/09 10:15:13;;;;;;;33.90;27.35;;;10.70;99.90;;;;;;4936871;29;20123;-73
2021/10/09 10:17:45;;;;;;;33.20;26.55;;;10.70;99.90;;;;;;4935928;29;20376;-74
2021/10/09 10:20:13;;;;;;;32.65;26.88;;;10.70;99.90;;;;;;4936728;29;20032;-74
2021/10/09 10:22:39;;;;;;;34.50;28.38;;;10.70;99.90;;;;;;4936798;29;20011;-74
2021/10/09 10:25:24;;;;;;;32.10;26.52;;;10.80;99.90;;;;;;4935624;29;20034;-73
2021/10/09 10:28:09;;;;;;;29.83;26.55;;;10.80;99.90;;;;;;4937704;29;20099;-74
2021/10/09 10:30:40;;;;;;;41.28;31.13;;;10.90;99.90;;;;;;4935864;29;20083;-74
2021/10/09 10:33:05;;;;;;;33.58;27.95;;;10.90;99.90;;;;;;4937628;29;20052;-73
2021/10/09 10:35:34;;;;;;;31.60;27.30;;;11.00;99.90;;;;;;4936187;29;20515;-74
2021/10/09 10:38:19;;;;;;;31.55;26.27;;;11.00;99.90;;;;;;4936727;29;20536;-74
2021/10/09 10:41:05;;;;;;;36.28;28.23;;;11.10;99.90;;;;;;4934664;29;20130;-75
2021/10/09 10:43:32;;;;;;;33.55;26.55;;;11.10;99.90;;;;;;4937139;29;20028;-78
2021/10/09 10:46:05;;;;;;;33.03;26.65;;;11.20;99.90;;;;;;4934800;29;20015;-74
2021/10/09 10:48:57;;;;;;;33.10;25.92;;;11.20;99.90;;;;;;4932843;29;20047;-76
2021/10/09 10:56:56;;;;;;;29.08;23.40;;;11.30;99.90;;;;;;4938090;29;20038;-74
2021/10/09 10:59:35;;;;;;;26.25;23.08;;;11.30;99.90;;;;;;4933444;29;20401;-74
2021/10/09 11:02:11;;;;;;;33.08;26.30;;;11.40;99.90;;;;;;4933410;29;20086;-74
2021/10/09 11:04:40;;;;;;;34.85;28.05;;;11.40;99.90;;;;;;4934436;29;20372;-74
2021/10/09 11:07:06;;;;;;;31.40;24.67;;;11.50;99.90;;;;;;4934105;29;20040;-77
2021/10/09 11:09:37;;;;;;;29.95;24.27;;;11.50;99.90;;;;;;4932219;29;20110;-80
2021/10/09 11:12:04;;;;;;;30.70;24.38;;;11.50;99.90;;;;;;4934958;29;20068;-75
2021/10/09 11:14:30;;;;;;;30.95;26.38;;;11.60;99.90;;;;;;4934859;29;20043;-77
2021/10/09 11:17:03;;;;;;;28.90;24.80;;;11.60;99.90;;;;;;4934854;29;20377;-76
2021/10/09 11:19:49;;;;;;;29.33;24.70;;;11.70;99.90;;;;;;4935642;29;20023;-76
2021/10/09 11:22:20;;;;;;;28.85;23.00;;;11.70;99.90;;;;;;4937026;29;20028;-76
2021/10/09 11:24:48;;;;;;;29.60;24.70;;;11.70;99.90;;;;;;4936515;29;20028;-74
2021/10/09 11:27:16;;;;;;;30.73;24.17;;;11.70;99.90;;;;;;4934862;29;20031;-78
2021/10/09 11:29:59;;;;;;;30.08;25.92;;;11.70;99.90;;;;;;4936419;29;20066;-75
2021/10/09 11:32:29;;;;;;;28.00;23.05;;;11.70;99.90;;;;;;4944929;28;20046;-78
2021/10/09 11:34:54;;;;;;;32.88;25.83;;;11.80;99.90;;;;;;4934064;29;20070;-73
2021/10/09 11:37:20;;;;;;;32.60;25.10;;;11.80;99.90;;;;;;4936356;29;20034;-78
2021/10/09 11:39:51;;;;;;;30.30;24.05;;;11.90;99.90;;;;;;4935600;29;20038;-74
2021/10/09 11:42:21;;;;;;;28.10;24.20;;;11.90;99.90;;;;;;4936018;29;20183;-77
2021/10/09 11:45:14;;;;;;;28.60;24.27;;;12.00;99.90;;;;;;4935084;29;20032;-74
2021/10/09 11:55:59;;;;;;;33.13;24.98;;;12.10;99.90;;;;;;4935844;29;20044;-79
2021/10/09 11:58:24;;;;;;;32.72;24.73;;;12.10;99.90;;;;;;4934542;29;20031;-75
2021/10/09 12:00:50;;;;;;;32.15;26.02;;;12.20;99.90;;;;;;4951065;28;20027;-77
2021/10/09 12:03:25;;;;;;;32.60;25.98;;;12.20;99.90;;;;;;4935642;29;20031;-78
2021/10/09 12:06:20;;;;;;;30.83;25.15;;;12.30;99.90;;;;;;4950945;29;20031;-79
2021/10/09 12:08:50;;;;;;;29.05;23.25;;;12.30;99.90;;;;;;4927286;29;20035;-78
2021/10/09 12:11:31;;;;;;;27.38;22.25;;;12.40;99.90;;;;;;4935457;29;20038;-79
2021/10/09 12:14:09;;;;;;;28.52;24.25;;;12.40;99.90;;;;;;4935975;29;20036;-74
2021/10/09 12:16:48;;;;;;;28.88;23.05;;;12.40;99.90;;;;;;4935111;29;20032;-74
2021/10/09 12:19:34;;;;;;;27.90;21.33;;;12.40;99.90;;;;;;4934594;29;20032;-74
2021/10/09 12:22:01;;;;;;;30.02;24.27;;;12.40;99.90;;;;;;4934263;29;20126;-76
2021/10/09 12:24:29;;;;;;;31.25;25.58;;;12.50;99.90;;;;;;4933720;29;20024;-75
2021/10/09 12:27:07;;;;;;;27.38;22.80;;;12.50;99.90;;;;;;4934540;29;20035;-73
2021/10/09 12:29:35;;;;;;;27.58;23.40;;;12.50;99.90;;;;;;4950123;28;20480;-74
2021/10/09 12:32:16;;;;;;;26.67;22.92;;;12.60;99.90;;;;;;4933863;29;20028;-75
2021/10/09 12:34:42;;;;;;;25.85;21.50;;;12.60;99.90;;;;;;4934327;29;20110;-74
2021/10/09 12:37:14;;;;;;;30.83;24.52;;;12.60;99.90;;;;;;4950462;29;20018;-74
2021/10/09 12:39:41;;;;;;;29.13;22.00;;;12.60;99.90;;;;;;4935338;29;20028;-74
2021/10/09 12:42:07;;;;;;;24.30;21.02;;;12.60;99.90;;;;;;4935617;29;20500;-74
2021/10/09 12:44:33;;;;;;;26.05;22.45;;;12.70;99.90;;;;;;4949356;29;20039;-74
2021/10/09 12:46:59;;;;;;;24.95;21.02;;;12.70;99.90;;;;;;4935525;29;20542;-75
2021/10/09 12:49:24;;;;;;;24.90;22.25;;;12.70;99.90;;;;;;4933792;29;20381;-75
2021/10/09 12:51:50;;;;;;;24.75;21.23;;;12.80;99.90;;;;;;4935040;29;20034;-73
2021/10/09 12:54:18;;;;;;;24.13;20.00;;;12.80;99.90;;;;;;4934211;29;20063;-75
2021/10/09 12:56:44;;;;;;;23.65;19.55;;;12.80;99.90;;;;;;4949805;29;20028;-73
2021/10/09 12:59:11;;;;;;;28.25;23.60;;;12.80;99.90;;;;;;4933511;29;20126;-74
2021/10/09 13:01:37;;;;;;;28.05;23.13;;;12.80;99.90;;;;;;4949736;29;20027;-74
2021/10/09 13:04:03;;;;;;;27.30;22.35;;;12.90;99.90;;;;;;4935669;29;20384;-74
2021/10/09 13:06:28;;;;;;;30.17;25.98;;;12.90;99.90;;;;;;4934412;29;20020;-75
2021/10/09 13:08:54;;;;;;;26.55;22.67;;;12.90;99.90;;;;;;4935291;29;20035;-74
2021/10/09 13:11:26;;;;;;;26.83;21.63;;;13.00;99.90;;;;;;4950036;28;20023;-74
2021/10/09 13:13:52;;;;;;;29.73;23.33;;;13.00;99.90;;;;;;4934553;29;20038;-76
2021/10/09 13:16:18;;;;;;;24.25;19.77;;;13.10;99.90;;;;;;4935055;29;20397;-77
2021/10/09 13:18:44;;;;;;;23.05;19.92;;;13.20;99.90;;;;;;4933269;29;20031;-75
2021/10/09 13:21:10;;;;;;;28.92;21.02;;;13.10;99.90;;;;;;4934643;29;20031;-76
2021/10/09 13:23:35;;;;;;;25.48;21.60;;;13.20;99.90;;;;;;4934907;29;20548;-77
2021/10/09 13:26:01;;;;;;;25.42;21.52;;;13.20;99.90;;;;;;4934104;29;20051;-76
2021/10/09 13:28:27;;;;;;;24.45;20.38;;;13.20;99.90;;;;;;4934316;29;20028;-77
2021/10/09 13:30:53;;;;;;;24.42;21.80;;;13.20;99.90;;;;;;4949893;28;20027;-77
2021/10/09 13:33:19;;;;;;;29.50;22.33;;;13.30;99.90;;;;;;4933844;29;20055;-75
2021/10/09 13:35:45;;;;;;;25.88;21.27;;;13.30;99.90;;;;;;4932861;29;20118;-74
2021/10/09 13:38:13;;;;;;;25.95;21.13;;;13.30;99.90;;;;;;4935294;29;20056;-75
2021/10/09 13:40:39;;;;;;;25.40;20.98;;;13.40;99.90;;;;;;4932940;29;20082;-74
2021/10/09 13:43:09;;;;;;;30.75;21.52;;;13.40;99.90;;;;;;4933807;29;20024;-75
2021/10/09 13:45:34;;;;;;;22.83;19.40;;;13.40;99.90;;;;;;4933689;29;20429;-74
2021/10/09 13:48:00;;;;;;;21.92;19.35;;;13.40;99.90;;;;;;4932792;29;20171;-74
2021/10/09 13:50:32;;;;;;;23.42;19.95;;;13.40;99.90;;;;;;4934941;29;20071;-74
2021/10/09 13:52:57;;;;;;;21.38;17.63;;;13.40;99.90;;;;;;4935223;29;20031;-75
2021/10/09 13:55:23;;;;;;;26.90;20.75;;;13.40;99.90;;;;;;4934282;29;20036;-74
2021/10/09 13:57:48;;;;;;;25.33;20.55;;;13.50;99.90;;;;;;4949418;28;20091;-75
2021/10/09 14:00:15;;;;;;;24.42;19.98;;;13.50;99.90;;;;;;4933647;29;20030;-73
2021/10/09 14:02:41;;;;;;;19.67;16.90;;;13.50;99.90;;;;;;4933918;29;20020;-74
2021/10/09 14:05:06;;;;;;;26.00;20.10;;;13.50;99.90;;;;;;4936899;29;20027;-74
2021/10/09 14:07:32;;;;;;;23.75;19.05;;;13.50;99.90;;;;;;4953063;29;20026;-74
2021/10/09 14:09:57;;;;;;;29.65;21.33;;;13.50;99.90;;;;;;4937693;29;20024;-74
2021/10/09 14:12:23;;;;;;;23.58;19.48;;;13.60;99.90;;;;;;4938352;29;20031;-75
2021/10/09 14:14:49;;;;;;;23.33;17.33;;;13.60;99.90;;;;;;4952850;28;20059;-76
2021/10/09 14:17:14;;;;;;;24.98;18.80;;;13.60;99.90;;;;;;4937473;29;20075;-75
2021/10/09 14:19:40;;;;;;;23.77;18.88;;;13.60;99.90;;;;;;4936712;29;20507;-75
2021/10/09 14:22:05;;;;;;;27.23;21.58;;;13.70;99.90;;;;;;4935006;29;20060;-83
2021/10/09 14:24:31;;;;;;;24.27;19.85;;;13.60;99.90;;;;;;4934799;29;20123;-79
2021/10/09 14:26:56;;;;;;;22.00;18.85;;;13.70;99.90;;;;;;4931685;29;20028;-77
2021/10/09 14:29:22;;;;;;;29.60;23.17;;;13.70;99.90;;;;;;4949839;28;20094;-75
2021/10/09 14:31:48;;;;;;;26.50;20.92;;;13.70;99.90;;;;;;4942439;29;20385;-78
2021/10/09 14:34:13;;;;;;;25.48;17.83;;;13.80;99.90;;;;;;4937052;29;20047;-74
2021/10/09 14:36:39;;;;;;;21.75;18.40;;;13.80;99.90;;;;;;4939291;29;20028;-75
2021/10/09 14:39:05;;;;;;;23.30;17.85;;;13.80;99.90;;;;;;4935736;29;20654;-78
2021/10/09 14:41:30;;;;;;;24.40;18.77;;;13.80;99.90;;;;;;4936213;29;20480;-78
2021/10/09 14:43:56;;;;;;;26.83;19.83;;;13.80;99.90;;;;;;4935280;29;20020;-79
2021/10/09 14:48:59;;;;;;;22.20;19.13;;;13.90;99.90;;;;;;4937476;29;20504;-75
2021/10/09 14:51:40;;;;;;;21.63;18.50;;;13.90;99.90;;;;;;4934456;29;20036;-74
2021/10/09 15:01:29;;;;;;;24.70;19.00;;;13.80;99.90;;;;;;4934203;29;20043;-76
2021/10/09 15:18:22;;;;;;;25.10;19.25;;;13.80;99.90;;;;;;4937284;29;20038;-80
2021/10/09 15:20:50;;;;;;;25.80;20.73;;;13.80;99.90;;;;;;4936157;29;20030;-80